createdAt,value
2023-05-14T00:02:14.013Z,6.65
2023-05-14T00:07:16.784Z,6.72
2023-05-14T00:12:20.073Z,6.78
2023-05-14T00:17:21.943Z,6.81
2023-05-14T00:22:23.961Z,6.86
2023-05-14T00:27:27.309Z,7.01
2023-05-14T00:32:29.289Z,7.10
2023-05-14T00:37:31.552Z,7.18
2023-05-14T00:42:34.871Z,7.26
2023-05-14T00:47:39.231Z,7.41
2023-05-14T00:52:41.609Z,7.58
2023-05-14T00:57:45.185Z,7.64
2023-05-14T01:02:47.229Z,7.75
2023-05-14T01:07:57.963Z,7.68
2023-05-14T01:13:08.302Z,7.77
2023-05-14T01:18:13.475Z,7.90
2023-05-14T01:23:16.980Z,7.94
2023-05-14T01:28:20.472Z,8.09
2023-05-14T01:33:25.915Z,8.17
2023-05-14T01:38:31.682Z,8.34
2023-05-14T01:43:35.517Z,8.47
2023-05-14T01:48:37.840Z,8.57
2023-05-14T01:53:41.193Z,8.49
2023-05-14T01:58:43.116Z,8.47
2023-05-14T02:03:45.071Z,8.45
2023-05-14T02:08:48.478Z,8.59
2023-05-14T02:13:50.477Z,8.42
2023-05-14T02:18:52.414Z,8.05
2023-05-14T02:23:56.284Z,7.95
2023-05-14T02:28:58.278Z,7.70
2023-05-14T02:34:01.171Z,7.49
2023-05-14T02:39:04.879Z,7.28
2023-05-14T02:44:06.865Z,7.30
2023-05-14T02:49:08.775Z,7.24
2023-05-14T02:54:12.138Z,7.03
2023-05-14T02:59:14.467Z,7.00
2023-05-14T03:04:16.964Z,6.99
2023-05-14T03:09:20.687Z,7.10
2023-05-14T03:14:22.693Z,7.22
2023-05-14T03:19:24.911Z,7.50
2023-05-14T03:24:28.194Z,7.83
2023-05-14T03:29:30.380Z,8.01
2023-05-14T03:34:32.764Z,8.09
2023-05-14T03:39:36.238Z,8.36
2023-05-14T03:44:38.191Z,8.39
2023-05-14T03:49:40.098Z,8.17
2023-05-14T03:54:43.416Z,8.08
2023-05-14T03:59:45.302Z,8.00
2023-05-14T04:04:47.265Z,7.95
2023-05-14T04:09:50.629Z,8.10
2023-05-14T04:14:52.678Z,8.24
2023-05-14T04:19:54.648Z,8.32
2023-05-14T04:24:57.931Z,8.59
2023-05-14T04:29:59.873Z,8.65
2023-05-14T04:35:02.106Z,8.78
2023-05-14T04:40:08.005Z,9.01
2023-05-14T04:45:10.883Z,9.17
2023-05-14T04:50:13.161Z,9.43
2023-05-14T04:55:16.573Z,9.68
2023-05-14T05:00:19.166Z,9.83
2023-05-14T05:05:21.442Z,10.08
2023-05-14T05:10:25.428Z,10.39
2023-05-14T05:15:27.598Z,10.60
2023-05-14T05:20:29.627Z,10.80
2023-05-14T05:25:32.938Z,11.05
2023-05-14T05:30:35.097Z,11.23
2023-05-14T05:35:37.356Z,11.49
2023-05-14T05:40:40.776Z,11.74
2023-05-14T05:45:42.952Z,11.97
2023-05-14T05:50:47.527Z,12.21
2023-05-14T05:55:51.657Z,12.47
2023-05-14T06:00:53.813Z,12.68
2023-05-14T06:05:55.783Z,12.93
2023-05-14T06:10:59.214Z,13.08
2023-05-14T06:16:01.302Z,13.18
2023-05-14T06:21:03.514Z,13.43
2023-05-14T06:26:06.939Z,13.46
2023-05-14T06:31:08.909Z,13.67
2023-05-14T06:36:11.007Z,13.72
2023-05-14T06:41:14.354Z,13.95
2023-05-14T06:46:16.354Z,13.94
2023-05-14T06:51:18.380Z,14.09
2023-05-14T06:56:22.360Z,13.78
2023-05-14T07:01:24.346Z,14.05
2023-05-14T07:06:26.370Z,14.21
2023-05-14T07:11:29.831Z,14.47
2023-05-14T07:16:31.804Z,14.47
2023-05-14T07:21:36.984Z,14.58
2023-05-14T07:26:41.034Z,14.63
2023-05-14T07:31:43.270Z,14.92
2023-05-14T07:36:45.366Z,14.96
2023-05-14T07:41:50.102Z,14.94
2023-05-14T07:46:52.080Z,15.20
2023-05-14T07:51:54.040Z,15.26
2023-05-14T07:56:57.367Z,15.33
2023-05-14T08:01:59.437Z,15.79
2023-05-14T08:07:01.711Z,15.88
2023-05-14T08:12:06.297Z,15.69
2023-05-14T08:17:08.421Z,15.91
2023-05-14T08:22:10.610Z,16.14
2023-05-14T08:27:13.954Z,16.54
2023-05-14T08:32:22.927Z,16.86
2023-05-14T08:37:25.959Z,17.21
2023-05-14T08:42:29.359Z,17.08
2023-05-14T08:47:31.680Z,16.88
2023-05-14T08:52:34.540Z,17.11
2023-05-14T08:57:38.068Z,17.22
2023-05-14T09:02:41.692Z,16.91
2023-05-14T09:07:43.787Z,16.61
2023-05-14T09:12:47.093Z,16.46
2023-05-14T09:17:49.260Z,16.05
2023-05-14T09:22:52.990Z,16.88
2023-05-14T09:27:58.635Z,17.15
2023-05-14T09:33:01.491Z,17.17
2023-05-14T09:38:03.594Z,16.91
2023-05-14T09:43:06.933Z,16.99
2023-05-14T09:48:08.966Z,17.23
2023-05-14T09:53:11.133Z,17.08
2023-05-14T09:58:14.768Z,17.76
2023-05-14T10:03:19.962Z,17.87
2023-05-14T10:08:26.729Z,17.83
2023-05-14T10:13:31.895Z,17.90
2023-05-14T10:18:39.792Z,18.19
2023-05-14T10:23:42.770Z,17.80
2023-05-14T10:28:46.583Z,17.57
2023-05-14T10:33:50.487Z,18.06
2023-05-14T10:38:57.210Z,18.07
2023-05-14T10:44:08.783Z,18.07
2023-05-14T10:49:11.450Z,17.90
2023-05-14T10:54:13.462Z,17.85
2023-05-14T10:59:17.689Z,18.24
2023-05-14T11:04:23.229Z,18.44
2023-05-14T11:09:26.843Z,18.39
2023-05-14T11:14:30.243Z,18.38
2023-05-14T11:19:32.234Z,18.64
2023-05-14T11:24:34.045Z,18.62
2023-05-14T11:29:38.202Z,17.85
2023-05-14T11:34:41.497Z,18.29
2023-05-14T11:39:47.977Z,17.87
2023-05-14T11:44:53.847Z,17.92
2023-05-14T11:49:55.845Z,18.14
2023-05-14T11:54:57.695Z,18.87
2023-05-14T12:00:01.122Z,19.01
2023-05-14T12:05:07.112Z,18.95
2023-05-14T12:10:12.108Z,18.30
2023-05-14T12:15:19.082Z,18.30
2023-05-14T12:20:21.152Z,18.56
2023-05-14T12:25:25.694Z,18.84
2023-05-14T12:30:37.535Z,18.41
2023-05-14T12:35:39.607Z,18.28
2023-05-14T12:40:41.581Z,18.66
2023-05-14T12:45:44.789Z,18.39
2023-05-14T12:50:48.527Z,18.31
2023-05-14T12:55:50.668Z,18.14
2023-05-14T13:01:02.399Z,18.19
2023-05-14T13:06:14.424Z,17.96
2023-05-14T13:11:16.328Z,18.27
2023-05-14T13:16:19.774Z,17.58
2023-05-14T13:21:22.064Z,17.33
2023-05-14T13:26:26.480Z,17.49
2023-05-14T13:31:30.150Z,17.63
2023-05-14T13:36:32.326Z,17.45
2023-05-14T13:41:37.857Z,17.40
2023-05-14T13:46:41.429Z,17.40
2023-05-14T13:51:43.400Z,17.27
2023-05-14T13:56:45.448Z,17.35
2023-05-14T14:01:50.069Z,17.17
2023-05-14T14:06:52.061Z,17.43
2023-05-14T14:11:54.171Z,17.18
2023-05-14T14:16:57.487Z,17.52
2023-05-14T14:21:59.510Z,17.26
2023-05-14T14:27:02.312Z,17.38
2023-05-14T14:32:06.582Z,17.42
2023-05-14T14:37:08.808Z,17.51
2023-05-14T14:42:10.777Z,17.43
2023-05-14T14:47:14.138Z,17.38
2023-05-14T14:52:16.202Z,17.22
2023-05-14T14:57:18.042Z,17.12
2023-05-14T15:02:21.988Z,17.11
2023-05-14T15:07:24.166Z,17.01
2023-05-14T15:12:26.146Z,16.86
2023-05-14T15:17:29.555Z,16.75
2023-05-14T15:22:31.652Z,16.65
2023-05-14T15:27:33.606Z,16.37
2023-05-14T15:32:37.145Z,15.92
2023-05-14T15:37:41.252Z,15.68
2023-05-14T15:42:43.995Z,15.30
2023-05-14T15:47:47.386Z,14.91
2023-05-14T15:52:49.510Z,15.06
2023-05-14T15:57:51.470Z,15.03
2023-05-14T16:02:54.887Z,15.05
2023-05-14T16:07:57.060Z,14.62
2023-05-14T16:12:59.064Z,14.51
2023-05-14T16:18:02.468Z,14.30
2023-05-14T16:23:04.546Z,14.30
2023-05-14T16:28:07.918Z,14.25
2023-05-14T16:33:11.881Z,14.31
2023-05-14T16:38:14.546Z,14.09
2023-05-14T16:43:16.619Z,13.91
2023-05-14T16:48:20.138Z,13.82
2023-05-14T16:53:22.160Z,13.66
2023-05-14T16:58:24.117Z,13.61
2023-05-14T17:03:27.417Z,13.53
2023-05-14T17:08:33.351Z,13.07
2023-05-14T17:13:35.623Z,12.84
2023-05-14T17:18:50.403Z,12.91
2023-05-14T17:23:52.466Z,12.65
2023-05-14T17:28:54.554Z,12.58
2023-05-14T17:33:58.768Z,12.45
2023-05-14T17:39:00.804Z,12.31
2023-05-14T17:44:02.806Z,12.22
2023-05-14T17:49:06.124Z,11.96
2023-05-14T17:54:08.159Z,11.93
2023-05-14T17:59:10.210Z,12.04
2023-05-14T18:04:13.748Z,11.86
2023-05-14T18:09:15.921Z,11.56
2023-05-14T18:14:18.587Z,11.58
2023-05-14T18:19:22.022Z,11.60
2023-05-14T18:24:23.992Z,11.43
2023-05-14T18:29:26.019Z,11.09
2023-05-14T18:34:29.328Z,11.04
2023-05-14T18:39:31.313Z,10.99
2023-05-14T18:44:33.331Z,11.00
2023-05-14T18:49:39.132Z,10.92
2023-05-14T18:54:41.086Z,10.90
2023-05-14T18:59:43.070Z,10.92
2023-05-14T19:09:51.253Z,10.93
2023-05-14T19:14:53.219Z,10.88
2023-05-14T19:19:56.693Z,10.66
2023-05-14T19:24:58.654Z,10.60
2023-05-14T19:30:00.703Z,10.66
2023-05-14T19:35:04.622Z,10.65
2023-05-14T19:40:07.835Z,10.63
2023-05-14T19:45:10.588Z,10.64
2023-05-14T19:50:13.852Z,10.58
2023-05-14T19:55:15.901Z,10.58
2023-05-14T20:00:18.192Z,10.60
2023-05-14T20:05:21.538Z,10.59
2023-05-14T20:10:24.204Z,10.45
2023-05-14T20:15:26.643Z,10.47
2023-05-14T20:20:32.864Z,10.43
2023-05-14T20:25:35.511Z,10.51
2023-05-14T20:30:37.585Z,10.55
2023-05-14T20:35:43.805Z,10.41
2023-05-14T20:40:45.930Z,10.23
2023-05-14T20:45:47.968Z,10.22
2023-05-14T20:50:51.284Z,10.25
2023-05-14T20:55:53.322Z,10.28
2023-05-14T21:00:55.292Z,10.31
2023-05-14T21:06:00.488Z,10.31
2023-05-14T21:11:02.497Z,10.31
2023-05-14T21:16:05.133Z,10.31
2023-05-14T21:21:08.487Z,10.35
2023-05-14T21:26:10.503Z,10.33
2023-05-14T21:31:12.469Z,10.37
2023-05-14T21:36:15.973Z,10.36
2023-05-14T21:41:17.980Z,10.36
2023-05-14T21:46:19.969Z,10.28
2023-05-14T21:51:23.784Z,10.22
2023-05-14T21:56:26.290Z,10.33
2023-05-14T22:01:28.322Z,10.32
2023-05-14T22:06:32.313Z,10.28
2023-05-14T22:11:34.311Z,10.20
2023-05-14T22:16:36.544Z,10.20
2023-05-14T22:21:40.032Z,10.22
2023-05-14T22:26:42.027Z,10.23
2023-05-14T22:31:44.153Z,10.27
2023-05-14T22:36:47.445Z,10.11
2023-05-14T22:41:54.792Z,10.14
2023-05-14T22:46:56.950Z,10.18
2023-05-14T22:52:00.500Z,10.28
2023-05-14T22:57:03.213Z,10.28
2023-05-14T23:02:05.242Z,10.25
2023-05-14T23:07:08.772Z,10.19
2023-05-14T23:12:10.765Z,10.16
2023-05-14T23:17:12.774Z,10.12
2023-05-14T23:22:16.166Z,10.17
2023-05-14T23:27:18.152Z,10.09
2023-05-14T23:32:20.114Z,10.06
2023-05-14T23:37:23.457Z,10.03
2023-05-14T23:42:25.490Z,10.08
2023-05-14T23:47:27.557Z,10.24
2023-05-14T23:52:30.905Z,10.13
2023-05-14T23:57:32.925Z,10.17
